Ramón Villeda Morales International Airport
MHLM : now visible

Airfield :











YOU CAN JOIN US ON...

 
LOGIN :

Register | Disclaimer

   EN    FR    IT 

 









Legend :    VFR   Marginal VFR   IFR   Intensive IFR   Very Intensive IFR
Visi :
Ceiling :
>= 8 km
>= 3000ft
5 to 8 km
1000 to 3000 ft
1500m to 5 km
500 to 1000 ft
800 to 1500m
200 to 500 ft
< 800m
< 200 ft
Symbols :   Thunderstorms  Fog  Heavy snow  Heavy precipitations  Wind > 20 kt






- Airport Elevation : 91 ft
- IATA code : SAP


MHLM - Ramón Villeda Morales International

CURRENT METAR :
  • 160900Z 22005KT 9999 FEW026 23/20 Q1012 A2989 NOSIG

EXPIRED METARs :
  • 160800Z 24005KT 9999 FEW026 23/20 Q1012 A2989 NOSIG
  • 160700Z 00000KT 9999 FEW026 22/21 Q1013 A2992 NOSIG

TAF COR TAF MHLM
Valid from the 16 at 06:00 until the 17 at 06:00 UTC


160215Z 1606/1706 22005KT 9999 FEW028 TX32/1621Z TN22/1612Z
BECMG 1618/1620 02008KT SCT028TCU
BECMG 1701/1703 VRB02KT FEW028



MET'MAP, your aeronautical weather chart ! - Copyright ORBIFLY December 2007 - Disclaimer

ORBIFLY MET'MAP TEAM :

Programming & Development : Alexandra Zaïnal
Concept & original design : Baudouin d'Aumeries
Assistance for programming : Marc-Olivier Méhu
Technical & hardware support : Manuel Goepfert

Contact : metmap@orbifly.com




SOURCES & CREDITS :

   NOAA       Earth
Advisory